Time;durP1;ratioP1;P1;durP2;ratioP2;P2;SDS_P1;SDS_P2;PMS_P1;PMS_P2;Temp;Humidity;BMP_temperature;BMP_pressure;BME280_temperature;BME280_humidity;BME280_pressure;Samples;Min_cycle;Max_cycle;Signal;HPM_P1;HPM_P2
2020/12/25 00:00:52;;;;;;;5.93;5.30;;;;;;;;;;4811371;29;20569;-86
2020/12/25 00:03:19;;;;;;;6.40;5.10;;;;;;;;;;4811725;29;20198;-86
2020/12/25 00:05:47;;;;;;;5.75;5.22;;;;;;;;;;4811031;29;20222;-89
2020/12/25 00:08:14;;;;;;;5.72;5.22;;;;;;;;;;4811605;29;20199;-89
2020/12/25 00:10:42;;;;;;;5.13;4.55;;;;;;;;;;4811554;29;20582;-85
2020/12/25 00:13:09;;;;;;;7.15;4.70;;;;;;;;;;4811103;29;20214;-85
2020/12/25 00:15:36;;;;;;;4.97;4.47;;;;;;;;;;4810632;29;20187;-85
2020/12/25 00:18:03;;;;;;;6.35;4.93;;;;;;;;;;4811008;29;20549;-85
2020/12/25 00:20:30;;;;;;;5.40;4.90;;;;;;;;;;4811090;29;20400;-87
2020/12/25 00:22:58;;;;;;;5.18;4.72;;;;;;;;;;4811408;29;20187;-86
2020/12/25 00:25:25;;;;;;;5.80;5.30;;;;;;;;;;4810783;29;20237;-87
2020/12/25 00:27:52;;;;;;;5.13;4.70;;;;;;;;;;4811084;29;20201;-87
2020/12/25 00:30:19;;;;;;;6.22;5.25;;;;;;;;;;4810109;29;20203;-87
2020/12/25 00:32:46;;;;;;;5.30;4.88;;;;;;;;;;4800573;29;20217;-85
2020/12/25 00:35:13;;;;;;;6.00;4.90;;;;;;;;;;4805012;29;20218;-85
2020/12/25 00:37:40;;;;;;;6.10;5.50;;;;;;;;;;4810498;29;20255;-86
2020/12/25 00:40:08;;;;;;;6.10;5.20;;;;;;;;;;4811326;29;20321;-87
2020/12/25 00:42:35;;;;;;;5.63;5.05;;;;;;;;;;4811089;29;20230;-87
2020/12/25 00:45:03;;;;;;;6.85;6.03;;;;;;;;;;4810512;29;20191;-88
2020/12/25 00:47:31;;;;;;;6.78;5.80;;;;;;;;;;4811372;29;20203;-90
2020/12/25 00:49:58;;;;;;;8.38;5.82;;;;;;;;;;4811073;29;20190;-89
2020/12/25 00:52:25;;;;;;;6.68;6.05;;;;;;;;;;4811838;29;20286;-88
2020/12/25 00:54:52;;;;;;;8.20;5.95;;;;;;;;;;4811289;29;20679;-91
2020/12/25 00:57:20;;;;;;;5.63;5.13;;;;;;;;;;4811313;29;20224;-92
2020/12/25 00:59:47;;;;;;;5.50;5.00;;;;;;;;;;4811701;29;20214;-90
2020/12/25 01:02:14;;;;;;;6.07;5.57;;;;;;;;;;4811598;29;20476;-89
2020/12/25 01:04:41;;;;;;;4.88;4.43;;;;;;;;;;4811371;29;20210;-90
2020/12/25 01:07:09;;;;;;;6.55;5.47;;;;;;;;;;4811808;29;20231;-91
2020/12/25 01:09:36;;;;;;;5.75;5.07;;;;;;;;;;4811405;29;20206;-91
2020/12/25 01:12:04;;;;;;;6.72;5.70;;;;;;;;;;4811463;29;20245;-88
2020/12/25 01:14:33;;;;;;;6.22;5.45;;;;;;;;;;4809934;29;20205;-90
2020/12/25 01:17:00;;;;;;;6.13;5.63;;;;;;;;;;4811366;29;20203;-90
2020/12/25 01:19:27;;;;;;;7.07;5.55;;;;;;;;;;4814732;29;20468;-91
2020/12/25 01:21:55;;;;;;;6.28;5.68;;;;;;;;;;4814567;29;20197;-91
2020/12/25 01:24:22;;;;;;;8.63;6.05;;;;;;;;;;4814614;29;20308;-91
2020/12/25 01:26:49;;;;;;;6.20;5.60;;;;;;;;;;4814520;29;20593;-91
2020/12/25 01:29:15;;;;;;;7.07;5.63;;;;;;;;;;4814908;29;20476;-90
2020/12/25 01:31:43;;;;;;;7.68;6.10;;;;;;;;;;4814767;29;20203;-89
2020/12/25 01:34:10;;;;;;;6.03;5.43;;;;;;;;;;4814522;29;20225;-90
2020/12/25 01:36:37;;;;;;;6.05;5.55;;;;;;;;;;4814664;29;20454;-91
2020/12/25 01:39:04;;;;;;;6.50;5.90;;;;;;;;;;4814519;29;20237;-91
2020/12/25 01:41:31;;;;;;;7.25;6.13;;;;;;;;;;4814054;29;20583;-89
2020/12/25 01:43:58;;;;;;;6.57;5.97;;;;;;;;;;4814087;29;20221;-91
2020/12/25 01:46:25;;;;;;;5.45;4.95;;;;;;;;;;4814291;29;20221;-90
2020/12/25 01:48:53;;;;;;;5.80;5.10;;;;;;;;;;4814334;29;20217;-91
2020/12/25 01:51:21;;;;;;;6.03;5.40;;;;;;;;;;4814263;29;20207;-89
2020/12/25 01:53:48;;;;;;;6.05;5.43;;;;;;;;;;4814194;29;20221;-90
2020/12/25 01:56:16;;;;;;;7.57;5.28;;;;;;;;;;4814090;29;20213;-90
2020/12/25 01:58:43;;;;;;;7.22;6.53;;;;;;;;;;4814249;29;20213;-89
2020/12/25 02:01:10;;;;;;;6.63;5.88;;;;;;;;;;4813943;29;20219;-90
2020/12/25 02:03:37;;;;;;;6.07;5.47;;;;;;;;;;4813955;29;20278;-90
2020/12/25 02:06:05;;;;;;;6.07;5.40;;;;;;;;;;4814014;29;20305;-89
2020/12/25 02:08:32;;;;;;;6.90;6.30;;;;;;;;;;4813751;29;20554;-91
2020/12/25 02:10:59;;;;;;;10.82;5.57;;;;;;;;;;4814048;29;20207;-90
2020/12/25 02:13:29;;;;;;;6.90;5.15;;;;;;;;;;4813867;29;20621;-90
2020/12/25 02:15:56;;;;;;;5.25;4.72;;;;;;;;;;4813914;29;20313;-90
2020/12/25 02:18:23;;;;;;;6.28;5.13;;;;;;;;;;4814057;29;20533;-89
2020/12/25 02:20:49;;;;;;;7.75;5.40;;;;;;;;;;4813889;29;20443;-91
2020/12/25 02:23:17;;;;;;;6.75;5.25;;;;;;;;;;4813815;29;20195;-91
2020/12/25 02:25:44;;;;;;;5.95;5.35;;;;;;;;;;4813625;29;20209;-91
2020/12/25 02:28:11;;;;;;;7.05;5.90;;;;;;;;;;4812377;29;20210;-91
2020/12/25 02:30:40;;;;;;;6.47;4.82;;;;;;;;;;4813731;29;20469;-91
2020/12/25 02:33:07;;;;;;;5.45;4.95;;;;;;;;;;4813606;29;20223;-91
2020/12/25 02:35:34;;;;;;;6.82;5.20;;;;;;;;;;4813700;29;20289;-92
2020/12/25 02:38:00;;;;;;;7.03;4.53;;;;;;;;;;4813333;29;20191;-91
2020/12/25 02:40:28;;;;;;;5.65;4.03;;;;;;;;;;4813315;29;20313;-90
2020/12/25 02:42:55;;;;;;;4.95;4.28;;;;;;;;;;4813471;29;20238;-90
2020/12/25 02:45:22;;;;;;;5.30;4.80;;;;;;;;;;4813503;29;20292;-90
2020/12/25 02:47:49;;;;;;;6.07;4.22;;;;;;;;;;4813345;29;20211;-92
2020/12/25 02:50:16;;;;;;;4.97;4.00;;;;;;;;;;4813322;29;20210;-91
2020/12/25 02:52:43;;;;;;;5.15;4.13;;;;;;;;;;4813405;29;20194;-91
2020/12/25 02:55:12;;;;;;;5.60;4.15;;;;;;;;;;4813316;29;20216;-92
2020/12/25 02:57:40;;;;;;;4.78;3.92;;;;;;;;;;4813181;29;20226;-91
2020/12/25 03:00:07;;;;;;;4.63;4.22;;;;;;;;;;4813195;29;20462;-90
2020/12/25 03:02:34;;;;;;;5.25;3.80;;;;;;;;;;4813091;29;20542;-90
2020/12/25 03:05:01;;;;;;;6.60;3.60;;;;;;;;;;4813119;29;20191;-90
2020/12/25 03:07:28;;;;;;;4.05;3.55;;;;;;;;;;4812969;29;20215;-89
2020/12/25 03:09:55;;;;;;;4.53;4.13;;;;;;;;;;4813157;29;20298;-90
2020/12/25 03:12:22;;;;;;;5.18;4.07;;;;;;;;;;4812887;29;20230;-90
2020/12/25 03:14:50;;;;;;;6.28;4.25;;;;;;;;;;4812689;29;20202;-90
2020/12/25 03:17:17;;;;;;;4.43;3.50;;;;;;;;;;4812612;29;20597;-89
2020/12/25 03:19:44;;;;;;;6.03;3.80;;;;;;;;;;4812594;29;20187;-89
2020/12/25 03:22:11;;;;;;;6.25;3.92;;;;;;;;;;4813038;29;20561;-89
2020/12/25 03:24:38;;;;;;;6.30;4.15;;;;;;;;;;4812392;29;20624;-89
2020/12/25 03:27:05;;;;;;;6.18;3.58;;;;;;;;;;4812734;29;20244;-88
2020/12/25 03:29:32;;;;;;;7.90;4.05;;;;;;;;;;4812418;29;20202;-90
2020/12/25 03:32:00;;;;;;;5.32;4.00;;;;;;;;;;4812747;29;20207;-91
2020/12/25 03:34:28;;;;;;;6.75;3.63;;;;;;;;;;4812409;29;20577;-88
2020/12/25 03:36:55;;;;;;;5.72;4.53;;;;;;;;;;4812593;29;20210;-88
2020/12/25 03:39:22;;;;;;;5.97;4.22;;;;;;;;;;4812498;29;20244;-90
2020/12/25 03:41:51;;;;;;;4.22;3.83;;;;;;;;;;4811842;29;20476;-89
2020/12/25 03:44:18;;;;;;;6.13;4.03;;;;;;;;;;4812407;29;20216;-89
2020/12/25 03:46:45;;;;;;;3.85;3.42;;;;;;;;;;4812462;29;20304;-89
2020/12/25 03:49:13;;;;;;;5.43;3.55;;;;;;;;;;4812155;29;20573;-89
2020/12/25 03:51:40;;;;;;;7.68;3.65;;;;;;;;;;4812036;29;20658;-92
2020/12/25 03:54:07;;;;;;;4.05;3.65;;;;;;;;;;4812294;29;20206;-92
2020/12/25 03:56:34;;;;;;;4.07;3.30;;;;;;;;;;4812780;29;20211;-93
2020/12/25 03:59:01;;;;;;;4.25;3.95;;;;;;;;;;4812459;29;20564;-94
2020/12/25 04:01:28;;;;;;;3.83;3.25;;;;;;;;;;4812020;29;20210;-93
2020/12/25 04:03:55;;;;;;;7.65;3.83;;;;;;;;;;4812301;29;20302;-93
2020/12/25 04:06:23;;;;;;;3.42;3.13;;;;;;;;;;4812328;29;20203;-92
2020/12/25 04:08:50;;;;;;;4.82;3.78;;;;;;;;;;4811860;29;20330;-93
2020/12/25 04:11:17;;;;;;;3.63;3.33;;;;;;;;;;4812044;29;20222;-93
2020/12/25 04:13:44;;;;;;;5.68;4.00;;;;;;;;;;4812220;29;20254;-92
2020/12/25 04:16:11;;;;;;;3.42;3.10;;;;;;;;;;4811936;29;20281;-92
2020/12/25 04:18:38;;;;;;;3.55;3.17;;;;;;;;;;4811896;29;20648;-92
2020/12/25 04:21:05;;;;;;;3.58;3.28;;;;;;;;;;4812047;29;20530;-93
2020/12/25 04:23:33;;;;;;;5.75;4.07;;;;;;;;;;4811951;29;20206;-92
2020/12/25 04:26:00;;;;;;;4.05;3.75;;;;;;;;;;4811965;29;20228;-90
2020/12/25 04:28:27;;;;;;;4.00;3.60;;;;;;;;;;4811458;29;20253;-89
2020/12/25 04:30:54;;;;;;;4.82;3.90;;;;;;;;;;4811904;29;20533;-89
2020/12/25 04:33:21;;;;;;;3.63;3.28;;;;;;;;;;4812151;29;20470;-90
2020/12/25 04:35:48;;;;;;;5.28;3.38;;;;;;;;;;4811397;29;20191;-90
2020/12/25 04:38:15;;;;;;;4.43;3.95;;;;;;;;;;4811284;29;20523;-90
2020/12/25 04:40:44;;;;;;;4.55;3.53;;;;;;;;;;4811541;29;20541;-89
2020/12/25 04:43:11;;;;;;;5.15;3.95;;;;;;;;;;4811158;29;20619;-89
2020/12/25 04:45:38;;;;;;;3.75;3.45;;;;;;;;;;4811796;29;20549;-90
2020/12/25 04:48:06;;;;;;;4.32;3.33;;;;;;;;;;4811466;29;20214;-90
2020/12/25 04:50:33;;;;;;;4.82;3.03;;;;;;;;;;4811378;29;20268;-90
2020/12/25 04:53:01;;;;;;;6.43;3.13;;;;;;;;;;4810271;29;20584;-90
2020/12/25 04:55:28;;;;;;;5.50;3.90;;;;;;;;;;4811443;29;20186;-90
2020/12/25 04:57:57;;;;;;;5.32;3.15;;;;;;;;;;4811352;29;20210;-89
2020/12/25 05:00:27;;;;;;;3.53;3.22;;;;;;;;;;4811621;29;20206;-90
2020/12/25 05:02:54;;;;;;;3.15;2.85;;;;;;;;;;4811586;29;20242;-89
2020/12/25 05:05:29;;;;;;;4.50;3.95;;;;;;;;;;4811411;29;20270;-90
2020/12/25 05:07:57;;;;;;;3.70;3.40;;;;;;;;;;4811161;29;20224;-89
2020/12/25 05:10:24;;;;;;;5.47;3.90;;;;;;;;;;4810958;29;20502;-89
2020/12/25 05:12:52;;;;;;;5.43;3.30;;;;;;;;;;4810875;29;20503;-89
2020/12/25 05:15:20;;;;;;;3.33;3.08;;;;;;;;;;4811167;29;20481;-90
2020/12/25 05:17:47;;;;;;;4.53;3.20;;;;;;;;;;4810967;29;20199;-89
2020/12/25 05:20:14;;;;;;;3.50;3.20;;;;;;;;;;4811340;29;20191;-90
2020/12/25 05:22:41;;;;;;;4.45;2.95;;;;;;;;;;4810719;29;20565;-89
2020/12/25 05:25:09;;;;;;;4.22;2.95;;;;;;;;;;4811071;29;20266;-90
2020/12/25 05:27:36;;;;;;;3.60;3.30;;;;;;;;;;4811055;29;20250;-90
2020/12/25 05:30:06;;;;;;;3.75;3.13;;;;;;;;;;4811072;29;20275;-90
2020/12/25 05:32:35;;;;;;;4.07;3.67;;;;;;;;;;4810787;29;20187;-89
2020/12/25 05:35:03;;;;;;;3.38;3.08;;;;;;;;;;4811093;29;20267;-90
2020/12/25 05:37:38;;;;;;;5.93;4.13;;;;;;;;;;4811370;29;20194;-90
2020/12/25 05:40:07;;;;;;;4.68;3.35;;;;;;;;;;4810669;29;20573;-90
2020/12/25 05:42:46;;;;;;;3.83;2.85;;;;;;;;;;4810572;29;20226;-90
2020/12/25 05:45:16;;;;;;;3.55;2.90;;;;;;;;;;4810738;29;20213;-91
2020/12/25 05:47:46;;;;;;;5.93;3.15;;;;;;;;;;4810851;29;20243;-91
2020/12/25 05:50:19;;;;;;;3.97;3.58;;;;;;;;;;4810914;29;20210;-91
2020/12/25 05:52:48;;;;;;;4.07;3.13;;;;;;;;;;4811139;29;20206;-89
2020/12/25 05:55:18;;;;;;;3.65;3.35;;;;;;;;;;4810758;29;20599;-90
2020/12/25 05:57:51;;;;;;;2.88;2.67;;;;;;;;;;4811022;29;20199;-91
2020/12/25 06:00:19;;;;;;;3.40;3.10;;;;;;;;;;4810647;29;20576;-91
2020/12/25 06:02:47;;;;;;;3.53;2.80;;;;;;;;;;4810782;29;20203;-91
2020/12/25 06:05:15;;;;;;;3.53;3.08;;;;;;;;;;4814024;29;20219;-91
2020/12/25 06:07:50;;;;;;;5.05;3.30;;;;;;;;;;4813919;29;20240;-91
2020/12/25 06:10:20;;;;;;;9.88;3.10;;;;;;;;;;4814184;29;20202;-91
2020/12/25 06:12:48;;;;;;;3.28;2.95;;;;;;;;;;4814558;29;20244;-90
2020/12/25 06:15:24;;;;;;;3.05;2.47;;;;;;;;;;4814015;29;20201;-91
2020/12/25 06:18:17;;;;;;;2.40;2.20;;;;;;;;;;4814112;29;20203;-90
2020/12/25 06:20:50;;;;;;;4.00;2.15;;;;;;;;;;4741379;30;20222;-90
2020/12/25 06:23:18;;;;;;;3.03;2.25;;;;;;;;;;4741282;30;20213;-90
2020/12/25 06:25:49;;;;;;;9.32;2.92;;;;;;;;;;4740914;30;20201;-91
2020/12/25 06:28:19;;;;;;;3.60;2.58;;;;;;;;;;4741137;30;20312;-90
2020/12/25 06:30:47;;;;;;;2.53;2.30;;;;;;;;;;4740695;30;20219;-89
2020/12/25 06:33:15;;;;;;;5.63;2.40;;;;;;;;;;4740997;30;20594;-90
2020/12/25 06:35:46;;;;;;;3.70;3.03;;;;;;;;;;4740909;30;20244;-90
2020/12/25 06:38:15;;;;;;;3.83;2.40;;;;;;;;;;4741018;30;20209;-90
2020/12/25 06:40:44;;;;;;;4.85;2.97;;;;;;;;;;4740835;30;20225;-92
2020/12/25 06:43:16;;;;;;;2.92;2.08;;;;;;;;;;4740967;30;20240;-92
2020/12/25 06:45:44;;;;;;;2.08;1.92;;;;;;;;;;4741006;30;20317;-91
2020/12/25 06:48:18;;;;;;;3.22;2.38;;;;;;;;;;4740689;30;20223;-91
2020/12/25 06:50:56;;;;;;;2.17;2.00;;;;;;;;;;4740778;30;20233;-91
2020/12/25 06:53:38;;;;;;;2.20;2.05;;;;;;;;;;4740751;30;20221;-90
2020/12/25 06:56:13;;;;;;;2.40;2.20;;;;;;;;;;4740473;30;20205;-92
2020/12/25 06:58:46;;;;;;;2.60;2.40;;;;;;;;;;4802455;29;20291;-91
2020/12/25 07:01:16;;;;;;;2.22;2.03;;;;;;;;;;4813089;29;20214;-91
2020/12/25 07:03:44;;;;;;;3.30;2.05;;;;;;;;;;4813514;29;20211;-91
2020/12/25 07:06:12;;;;;;;2.22;2.00;;;;;;;;;;4813475;29;20210;-92
2020/12/25 07:08:45;;;;;;;1.95;1.80;;;;;;;;;;4812940;29;20252;-93
2020/12/25 07:11:13;;;;;;;3.80;1.70;;;;;;;;;;4812422;29;20202;-91
2020/12/25 07:13:40;;;;;;;2.03;1.80;;;;;;;;;;4812327;29;20841;-94
2020/12/25 07:16:08;;;;;;;1.95;1.85;;;;;;;;;;4808991;29;20234;-92
2020/12/25 07:18:35;;;;;;;2.83;2.30;;;;;;;;;;4812438;29;20202;-93
2020/12/25 07:21:06;;;;;;;3.08;1.80;;;;;;;;;;4812562;29;20203;-92
2020/12/25 07:23:33;;;;;;;2.47;2.28;;;;;;;;;;4810546;29;20210;-91
2020/12/25 07:26:03;;;;;;;2.10;2.00;;;;;;;;;;4812294;29;20206;-91
2020/12/25 07:28:30;;;;;;;3.08;2.13;;;;;;;;;;4809792;29;20500;-92
2020/12/25 07:30:58;;;;;;;2.80;1.73;;;;;;;;;;4812225;29;20191;-90
2020/12/25 07:33:28;;;;;;;3.83;2.13;;;;;;;;;;4812070;29;20206;-89
2020/12/25 07:35:55;;;;;;;5.20;3.05;;;;;;;;;;4812429;29;20304;-91
2020/12/25 07:38:23;;;;;;;13.27;4.15;;;;;;;;;;4812193;29;20306;-91
2020/12/25 07:40:50;;;;;;;3.92;3.63;;;;;;;;;;4812442;29;20211;-92
2020/12/25 07:43:17;;;;;;;4.15;3.78;;;;;;;;;;4811980;29;20231;-92
2020/12/25 07:45:46;;;;;;;4.07;3.40;;;;;;;;;;4811872;29;20517;-94
2020/12/25 07:48:13;;;;;;;4.53;3.90;;;;;;;;;;4812175;29;20222;-95
2020/12/25 07:50:42;;;;;;;3.22;2.95;;;;;;;;;;4811583;29;20354;-90
2020/12/25 07:53:10;;;;;;;4.00;3.50;;;;;;;;;;4809437;29;20285;-89
2020/12/25 07:55:39;;;;;;;4.38;3.97;;;;;;;;;;4811968;29;20215;-89
2020/12/25 07:58:06;;;;;;;3.75;3.45;;;;;;;;;;4811757;29;20210;-89
2020/12/25 08:00:34;;;;;;;3.17;2.88;;;;;;;;;;4811876;29;20213;-91
2020/12/25 08:03:01;;;;;;;4.70;2.72;;;;;;;;;;4811004;29;20209;-89
2020/12/25 08:05:29;;;;;;;3.50;3.13;;;;;;;;;;4811639;29;20285;-91
2020/12/25 08:07:56;;;;;;;4.32;3.47;;;;;;;;;;4809350;29;20210;-89
2020/12/25 08:10:25;;;;;;;2.90;2.70;;;;;;;;;;4811648;29;20205;-89
2020/12/25 08:12:56;;;;;;;4.68;3.75;;;;;;;;;;4809993;29;20285;-90
2020/12/25 08:15:24;;;;;;;3.83;3.53;;;;;;;;;;4811790;29;20210;-90
2020/12/25 08:18:00;;;;;;;3.80;3.50;;;;;;;;;;4810964;29;20214;-88
2020/12/25 08:20:31;;;;;;;4.30;3.40;;;;;;;;;;4809560;29;20222;-88
2020/12/25 08:22:59;;;;;;;3.70;3.15;;;;;;;;;;4811450;29;20190;-88
2020/12/25 08:25:27;;;;;;;3.97;3.17;;;;;;;;;;4811626;29;20568;-90
2020/12/25 08:27:55;;;;;;;4.32;3.00;;;;;;;;;;4811131;29;20183;-89
2020/12/25 08:30:23;;;;;;;4.53;3.10;;;;;;;;;;4808900;29;20517;-89
2020/12/25 08:32:55;;;;;;;3.47;3.15;;;;;;;;;;4811464;29;20538;-89
2020/12/25 08:35:26;;;;;;;4.05;3.50;;;;;;;;;;4811504;29;20191;-88
2020/12/25 08:37:58;;;;;;;4.35;3.95;;;;;;;;;;4811478;29;20203;-88
2020/12/25 08:40:30;;;;;;;3.83;3.40;;;;;;;;;;4811076;29;20243;-88
2020/12/25 08:43:07;;;;;;;4.00;3.65;;;;;;;;;;4811337;29;20237;-89
2020/12/25 08:45:33;;;;;;;4.22;3.90;;;;;;;;;;4811249;29;20187;-88
2020/12/25 08:48:06;;;;;;;4.97;4.55;;;;;;;;;;4811325;29;20217;-90
2020/12/25 08:50:33;;;;;;;6.53;3.80;;;;;;;;;;4811306;29;20521;-90
2020/12/25 08:53:18;;;;;;;5.18;4.18;;;;;;;;;;4811357;29;20545;-89
2020/12/25 08:55:50;;;;;;;4.40;4.00;;;;;;;;;;4811908;29;20222;-88
2020/12/25 08:58:22;;;;;;;3.33;3.03;;;;;;;;;;4812781;29;20277;-88
2020/12/25 09:00:58;;;;;;;5.40;4.18;;;;;;;;;;4811667;29;20207;-90
2020/12/25 09:03:25;;;;;;;4.82;3.63;;;;;;;;;;4811236;29;20679;-90
2020/12/25 09:06:00;;;;;;;3.72;3.05;;;;;;;;;;4811247;29;20289;-89
2020/12/25 09:08:27;;;;;;;5.82;3.20;;;;;;;;;;4811051;29;20617;-88
2020/12/25 09:10:54;;;;;;;3.80;3.33;;;;;;;;;;4810769;29;20585;-89
2020/12/25 09:13:21;;;;;;;4.43;4.03;;;;;;;;;;4811033;29;20227;-89
2020/12/25 09:15:48;;;;;;;3.90;3.60;;;;;;;;;;4810893;29;20195;-89
2020/12/25 09:18:15;;;;;;;3.58;3.28;;;;;;;;;;4811095;29;20464;-88
2020/12/25 09:20:42;;;;;;;5.70;3.70;;;;;;;;;;4811245;29;20206;-90
2020/12/25 09:23:09;;;;;;;4.53;3.67;;;;;;;;;;4811075;29;20195;-91
2020/12/25 09:25:36;;;;;;;4.35;3.72;;;;;;;;;;4811084;29;20274;-89
2020/12/25 09:28:03;;;;;;;4.07;3.70;;;;;;;;;;4810621;29;20216;-89
2020/12/25 09:30:31;;;;;;;5.00;4.40;;;;;;;;;;4811172;29;20225;-89
2020/12/25 09:32:58;;;;;;;5.10;4.43;;;;;;;;;;4810818;29;20206;-89
2020/12/25 09:35:25;;;;;;;4.90;4.50;;;;;;;;;;4810795;29;20192;-89
2020/12/25 09:37:52;;;;;;;5.10;4.60;;;;;;;;;;4810765;29;20609;-90
2020/12/25 09:40:19;;;;;;;5.10;4.60;;;;;;;;;;4814155;29;20617;-89
2020/12/25 09:42:46;;;;;;;7.25;4.75;;;;;;;;;;4814119;29;20621;-89
2020/12/25 09:45:13;;;;;;;5.97;5.38;;;;;;;;;;4814191;29;20579;-88
2020/12/25 09:47:41;;;;;;;4.88;4.40;;;;;;;;;;4814427;29;20278;-87
2020/12/25 09:50:08;;;;;;;4.70;4.30;;;;;;;;;;4814098;29;20321;-90
2020/12/25 09:52:35;;;;;;;4.95;4.45;;;;;;;;;;4814403;29;20283;-90
2020/12/25 09:55:03;;;;;;;5.30;4.82;;;;;;;;;;4814454;29;20588;-91
2020/12/25 09:57:30;;;;;;;5.80;4.25;;;;;;;;;;4814635;29;20218;-90
2020/12/25 09:59:57;;;;;;;5.95;4.45;;;;;;;;;;4814207;29;20214;-90
2020/12/25 10:02:24;;;;;;;4.72;4.32;;;;;;;;;;4814218;29;20198;-91
2020/12/25 10:04:52;;;;;;;7.65;4.68;;;;;;;;;;4814264;29;20234;-90
2020/12/25 10:07:19;;;;;;;7.10;4.68;;;;;;;;;;4814074;29;20203;-92
2020/12/25 10:09:46;;;;;;;6.38;4.72;;;;;;;;;;4813893;29;20236;-90
2020/12/25 10:12:13;;;;;;;4.75;4.35;;;;;;;;;;4813683;29;20224;-89
2020/12/25 10:14:40;;;;;;;4.45;4.05;;;;;;;;;;4814116;29;20207;-93
2020/12/25 10:17:06;;;;;;;5.53;4.57;;;;;;;;;;4813810;29;20206;-91
2020/12/25 10:19:34;;;;;;;6.45;5.78;;;;;;;;;;4814153;29;20198;-93
2020/12/25 10:22:02;;;;;;;4.32;3.90;;;;;;;;;;4813916;29;20355;-90
2020/12/25 10:24:29;;;;;;;9.40;4.70;;;;;;;;;;4813928;29;20183;-89
2020/12/25 10:26:56;;;;;;;5.32;4.82;;;;;;;;;;4813826;29;20271;-91
2020/12/25 10:29:23;;;;;;;5.45;4.72;;;;;;;;;;4813867;29;20237;-92
2020/12/25 10:31:50;;;;;;;5.63;5.07;;;;;;;;;;4813490;29;20187;-92
2020/12/25 10:34:18;;;;;;;4.97;4.25;;;;;;;;;;4813949;29;20213;-92
2020/12/25 10:36:45;;;;;;;7.50;5.53;;;;;;;;;;4813755;29;20199;-92
2020/12/25 10:39:14;;;;;;;5.95;4.28;;;;;;;;;;4813368;29;20252;-93
2020/12/25 10:41:41;;;;;;;6.85;5.10;;;;;;;;;;4813455;29;20277;-91
2020/12/25 10:44:08;;;;;;;6.55;5.03;;;;;;;;;;4813570;29;20199;-92
2020/12/25 10:46:36;;;;;;;5.53;4.25;;;;;;;;;;4813465;29;20209;-92
2020/12/25 10:49:03;;;;;;;5.85;5.03;;;;;;;;;;4813231;29;20491;-91
2020/12/25 10:51:30;;;;;;;6.57;4.82;;;;;;;;;;4812397;29;20195;-90
2020/12/25 10:53:57;;;;;;;5.13;4.63;;;;;;;;;;4813507;29;20213;-92
2020/12/25 10:56:26;;;;;;;7.60;4.40;;;;;;;;;;4813462;29;20210;-91
2020/12/25 10:58:54;;;;;;;7.95;5.60;;;;;;;;;;4814551;29;20191;-91
2020/12/25 11:01:25;;;;;;;8.73;4.78;;;;;;;;;;4812846;29;20545;-91
2020/12/25 11:03:52;;;;;;;8.55;5.07;;;;;;;;;;4799542;29;20268;-90
2020/12/25 11:06:20;;;;;;;6.03;5.00;;;;;;;;;;4811420;29;20216;-90
2020/12/25 11:08:48;;;;;;;5.05;4.28;;;;;;;;;;4812450;29;20187;-89
2020/12/25 11:11:24;;;;;;;6.32;4.28;;;;;;;;;;4812491;29;20259;-89
2020/12/25 11:13:51;;;;;;;6.65;4.97;;;;;;;;;;4806718;29;20229;-90
2020/12/25 11:16:22;;;;;;;5.75;4.65;;;;;;;;;;4812438;29;20199;-90
2020/12/25 11:18:49;;;;;;;7.88;5.47;;;;;;;;;;4809143;29;20217;-91
2020/12/25 11:21:21;;;;;;;5.35;4.03;;;;;;;;;;4812385;29;20487;-89
2020/12/25 11:23:48;;;;;;;4.78;4.30;;;;;;;;;;4810081;29;20271;-92
2020/12/25 11:26:20;;;;;;;7.97;6.70;;;;;;;;;;4813054;29;20198;-92
2020/12/25 11:28:48;;;;;;;7.03;5.28;;;;;;;;;;4812956;29;20191;-91
2020/12/25 11:31:16;;;;;;;5.78;4.47;;;;;;;;;;4813932;29;20241;-91
2020/12/25 11:33:43;;;;;;;7.90;5.97;;;;;;;;;;4813306;29;20214;-92
2020/12/25 11:36:15;;;;;;;5.95;5.28;;;;;;;;;;4813154;29;20463;-90
2020/12/25 11:38:42;;;;;;;7.10;4.47;;;;;;;;;;4810843;29;20238;-91
2020/12/25 11:41:10;;;;;;;5.53;4.13;;;;;;;;;;4811975;29;20202;-92
2020/12/25 11:43:44;;;;;;;5.03;4.22;;;;;;;;;;4814718;29;20254;-92
2020/12/25 11:46:15;;;;;;;6.85;4.93;;;;;;;;;;4813234;29;20488;-93
2020/12/25 11:48:46;;;;;;;5.47;4.53;;;;;;;;;;4813274;29;20278;-94
2020/12/25 11:51:18;;;;;;;6.93;4.15;;;;;;;;;;4813804;29;20230;-92
2020/12/25 11:53:46;;;;;;;4.35;3.95;;;;;;;;;;4813826;29;20219;-90
2020/12/25 11:56:13;;;;;;;4.20;3.67;;;;;;;;;;4813446;29;20217;-93
2020/12/25 11:58:46;;;;;;;7.32;3.47;;;;;;;;;;4813832;29;20356;-96
2020/12/25 12:01:14;;;;;;;4.15;3.60;;;;;;;;;;4813698;29;20202;-93
2020/12/25 12:03:41;;;;;;;4.15;3.75;;;;;;;;;;4812973;29;20210;-92
2020/12/25 12:06:10;;;;;;;5.47;3.78;;;;;;;;;;4806075;29;20456;-91
2020/12/25 12:08:37;;;;;;;5.70;3.65;;;;;;;;;;4811885;29;20340;-90
2020/12/25 12:11:06;;;;;;;4.15;3.63;;;;;;;;;;4811096;29;20230;-90
2020/12/25 12:13:33;;;;;;;7.57;4.07;;;;;;;;;;4811778;29;20317;-87
2020/12/25 12:16:00;;;;;;;4.80;4.38;;;;;;;;;;4811668;29;20206;-91
2020/12/25 12:18:28;;;;;;;8.38;5.43;;;;;;;;;;4811525;29;20203;-86
2020/12/25 12:20:56;;;;;;;4.28;2.85;;;;;;;;;;4810943;29;20286;-86
2020/12/25 12:23:23;;;;;;;5.35;3.45;;;;;;;;;;4811466;29;20466;-86
2020/12/25 12:25:50;;;;;;;4.97;3.40;;;;;;;;;;4810843;29;20268;-92
2020/12/25 12:28:17;;;;;;;4.07;3.30;;;;;;;;;;4808802;29;20206;-90
2020/12/25 12:30:47;;;;;;;5.00;3.17;;;;;;;;;;4809122;29;20245;-92
2020/12/25 12:33:19;;;;;;;4.93;3.70;;;;;;;;;;4808935;29;20203;-89
2020/12/25 12:35:47;;;;;;;3.80;3.05;;;;;;;;;;4809067;29;20222;-91
2020/12/25 12:38:14;;;;;;;7.60;3.22;;;;;;;;;;4811254;29;20205;-93
2020/12/25 12:40:41;;;;;;;5.60;3.28;;;;;;;;;;4811105;29;20531;-90
2020/12/25 12:43:09;;;;;;;5.18;3.75;;;;;;;;;;4815867;29;20256;-93
2020/12/25 12:48:18;;;;;;;5.90;3.45;;;;;;;;;;4821183;29;20191;-94
2020/12/25 12:50:50;;;;;;;6.03;3.08;;;;;;;;;;4811553;29;20661;-95
2020/12/25 12:53:17;;;;;;;3.25;2.85;;;;;;;;;;4811234;29;20528;-91
2020/12/25 12:55:44;;;;;;;4.85;3.00;;;;;;;;;;4811475;29;20285;-93
2020/12/25 12:58:11;;;;;;;5.30;3.25;;;;;;;;;;4811845;29;20214;-94
2020/12/25 13:00:39;;;;;;;5.15;2.67;;;;;;;;;;4811145;29;20473;-93
2020/12/25 13:05:40;;;;;;;3.53;2.20;;;;;;;;;;4761461;30;20690;-92
2020/12/25 13:08:08;;;;;;;5.25;2.92;;;;;;;;;;4774718;30;20275;-91
2020/12/25 13:10:36;;;;;;;5.07;3.00;;;;;;;;;;4772562;30;20227;-92
2020/12/25 13:13:03;;;;;;;4.80;2.53;;;;;;;;;;4773908;30;20200;-91
2020/12/25 13:15:30;;;;;;;4.03;2.83;;;;;;;;;;4774101;30;20191;-92
2020/12/25 13:18:00;;;;;;;4.22;2.90;;;;;;;;;;4764174;30;20212;-93
2020/12/25 13:20:26;;;;;;;3.13;2.67;;;;;;;;;;4757031;30;20258;-92
2020/12/25 13:22:54;;;;;;;4.47;2.00;;;;;;;;;;4757387;30;20211;-91
2020/12/25 13:25:21;;;;;;;5.68;2.20;;;;;;;;;;4757093;30;20201;-91
2020/12/25 13:27:48;;;;;;;7.75;2.83;;;;;;;;;;4757152;30;20222;-92
2020/12/25 13:30:15;;;;;;;4.40;2.67;;;;;;;;;;4767423;30;20265;-90
2020/12/25 13:32:42;;;;;;;4.75;3.25;;;;;;;;;;4774485;30;20653;-90
2020/12/25 13:35:09;;;;;;;3.88;2.63;;;;;;;;;;4789646;30;20715;-90
2020/12/25 13:37:36;;;;;;;6.25;2.35;;;;;;;;;;4792886;30;20549;-92
2020/12/25 13:42:52;;;;;;;2.90;2.40;;;;;;;;;;4791693;29;20210;-91
2020/12/25 13:45:19;;;;;;;3.08;2.30;;;;;;;;;;4792787;30;20229;-92
2020/12/25 13:47:46;;;;;;;4.35;2.60;;;;;;;;;;4792649;30;20191;-92
2020/12/25 13:50:13;;;;;;;5.28;2.80;;;;;;;;;;4792935;30;20291;-90
2020/12/25 13:52:40;;;;;;;3.60;2.22;;;;;;;;;;4793033;30;20203;-92
2020/12/25 13:55:07;;;;;;;2.63;2.17;;;;;;;;;;4788812;30;20210;-91
2020/12/25 13:57:37;;;;;;;2.90;2.13;;;;;;;;;;4775898;30;20291;-94
2020/12/25 14:00:05;;;;;;;4.82;2.45;;;;;;;;;;4775414;30;20200;-93
2020/12/25 14:02:32;;;;;;;1.95;1.75;;;;;;;;;;4776441;30;20606;-94
2020/12/25 14:05:04;;;;;;;2.42;2.20;;;;;;;;;;4775998;30;20268;-94
2020/12/25 14:07:31;;;;;;;2.42;1.67;;;;;;;;;;4779875;30;20633;-92
2020/12/25 14:09:58;;;;;;;10.38;2.33;;;;;;;;;;4774796;30;20231;-91
2020/12/25 14:12:25;;;;;;;3.60;2.05;;;;;;;;;;4774882;30;20254;-93
2020/12/25 14:14:52;;;;;;;8.05;2.00;;;;;;;;;;4774750;30;20208;-93
2020/12/25 14:17:20;;;;;;;4.05;1.83;;;;;;;;;;4775045;30;20219;-93
2020/12/25 14:19:47;;;;;;;4.03;2.20;;;;;;;;;;4774537;30;20193;-93
2020/12/25 14:22:14;;;;;;;4.53;1.83;;;;;;;;;;4775307;30;20202;-92
2020/12/25 14:24:41;;;;;;;3.05;1.98;;;;;;;;;;4771539;29;20288;-92
2020/12/25 14:27:10;;;;;;;2.50;2.05;;;;;;;;;;4769686;30;20257;-91
2020/12/25 14:29:38;;;;;;;3.78;1.77;;;;;;;;;;4778613;30;20294;-91
2020/12/25 14:32:05;;;;;;;2.13;1.55;;;;;;;;;;4777798;30;20230;-90
2020/12/25 14:34:32;;;;;;;2.40;1.70;;;;;;;;;;4777541;30;20677;-91
2020/12/25 14:37:00;;;;;;;5.72;2.08;;;;;;;;;;4775040;30;20196;-91
2020/12/25 14:39:26;;;;;;;1.42;1.33;;;;;;;;;;4768561;30;20199;-90
2020/12/25 14:41:54;;;;;;;5.28;2.42;;;;;;;;;;4769450;30;20449;-90
2020/12/25 14:44:21;;;;;;;3.03;1.55;;;;;;;;;;4767562;30;20208;-91
2020/12/25 14:46:49;;;;;;;4.03;2.03;;;;;;;;;;4768014;30;20585;-90
2020/12/25 14:49:16;;;;;;;3.00;2.30;;;;;;;;;;4773663;30;20219;-91
2020/12/25 14:51:44;;;;;;;6.65;1.40;;;;;;;;;;4775887;30;20296;-91
2020/12/25 14:54:14;;;;;;;3.03;1.55;;;;;;;;;;4781153;30;20203;-92
2020/12/25 14:56:41;;;;;;;5.00;3.17;;;;;;;;;;4773473;30;20204;-91